Dades meteomassalio
Diari Summary for Juny 30, 2017 Units:  Metric    English   Both
« Previous Day
Next Day »
Diari Semanal Mensual Anual Personalitzat
  Maxima: Minima: Mijana:
Temperatura: 23.7 °C 12.5 °C 19.1 °C
Rosada: 9.7 °C 3.4 °C 7.3 °C
Humitat: 71 % 35 % 48 %
Velocitat del vent: 44.4 km/h 0.0 km/h 20.4 km/h
Racha vent: 44.4 km/h - -
Vent:- - NW
Pressio: 1019.5 hPa 1010.0 hPa -
Pluja: 0.0 mm    
Historical Graphs
 
 
Tabular Data for Juny 30, 2017
Time Temperature Dew Point Pressure Wind Wind Speed Wind Gust Humidity Rainfall Rate (Hourly) solar Conditions
00:04 19.3 °C 3.5 °C 1010.0 hPa Calm     35 % 0.0 mm 0.0 W/m2 CLR
00:09 19.3 °C 3.5 °C 1010.4 hPa WNW 3.2 km/h 3.2 km/h 35 % 0.0 mm 0.0 W/m2 CLR
00:14 19.2 °C 3.4 °C 1010.4 hPa WNW 5.6 km/h 5.6 km/h 35 % 0.0 mm 0.0 W/m2 CLR
00:19 19.1 °C 3.6 °C 1010.4 hPa WNW 3.7 km/h 3.7 km/h 36 % 0.0 mm 0.0 W/m2 CLR
00:24 18.8 °C 3.4 °C 1010.4 hPa WNW 4.8 km/h 4.8 km/h 36 % 0.0 mm 0.0 W/m2 CLR
00:29 18.8 °C 3.4 °C 1010.4 hPa WNW 5.6 km/h 5.6 km/h 36 % 0.0 mm 0.0 W/m2 CLR
00:34 18.8 °C 3.4 °C 1010.4 hPa NNW 4.8 km/h 4.8 km/h 36 % 0.0 mm 0.0 W/m2 CLR
00:39 18.8 °C 3.4 °C 1010.4 hPa NW 13.0 km/h 13.0 km/h 36 % 0.0 mm 0.0 W/m2 CLR
00:44 18.6 °C 3.6 °C 1010.4 hPa NW 14.8 km/h 14.8 km/h 37 % 0.0 mm 0.0 W/m2 CLR
00:45 18.7 °C 3.7 °C 1010.4 hPa NNW 18.5 km/h 18.5 km/h 37 % 0.0 mm 0.0 W/m2 CLR
00:50 19.0 °C 3.9 °C 1010.4 hPa North 16.1 km/h 16.1 km/h 37 % 0.0 mm 0.0 W/m2 CLR
00:55 19.1 °C 4.4 °C 1010.4 hPa NW 13.0 km/h 13.0 km/h 38 % 0.0 mm 0.0 W/m2 CLR
01:00 18.9 °C 4.7 °C 1010.7 hPa North 16.7 km/h 16.7 km/h 39 % 0.0 mm 0.0 W/m2 CLR
01:05 18.8 °C 4.9 °C 1010.7 hPa NNW 9.7 km/h 9.7 km/h 40 % 0.0 mm 0.0 W/m2 CLR
01:10 18.6 °C 5.1 °C 1010.7 hPa NNW 9.3 km/h 9.3 km/h 41 % 0.0 mm 0.0 W/m2 CLR
01:15 18.5 °C 5.3 °C 1011.1 hPa Calm     42 % 0.0 mm 0.0 W/m2 CLR
01:20 18.2 °C 5.1 °C 1011.1 hPa WNW 8.0 km/h 8.0 km/h 42 % 0.0 mm 0.0 W/m2 CLR
01:21 18.2 °C 5.1 °C 1011.1 hPa WNW 11.1 km/h 11.1 km/h 42 % 0.0 mm 0.0 W/m2 CLR
01:26 17.7 °C 5.3 °C 1011.4 hPa NW 18.5 km/h 18.5 km/h 44 % 0.0 mm 0.0 W/m2 CLR
01:31 17.7 °C 5.6 °C 1011.4 hPa NW 16.1 km/h 16.1 km/h 45 % 0.0 mm 0.0 W/m2 CLR
01:36 17.8 °C 5.7 °C 1011.4 hPa NW 14.8 km/h 14.8 km/h 45 % 0.0 mm 0.0 W/m2 CLR
01:41 17.9 °C 6.1 °C 1011.4 hPa NNW 11.1 km/h 11.1 km/h 46 % 0.0 mm 0.0 W/m2 CLR
01:46 17.8 °C 6.3 °C 1011.7 hPa NW 14.8 km/h 14.8 km/h 47 % 0.0 mm 0.0 W/m2 CLR
01:51 17.7 °C 6.3 °C 1011.7 hPa NW 16.7 km/h 16.7 km/h 47 % 0.0 mm 0.0 W/m2 CLR
01:56 17.7 °C 6.5 °C 1012.1 hPa NW 18.5 km/h 18.5 km/h 48 % 0.0 mm 0.0 W/m2 CLR
02:01 17.4 °C 6.6 °C 1012.1 hPa NW 16.7 km/h 16.7 km/h 49 % 0.0 mm 0.0 W/m2 CLR
02:06 17.3 °C 6.4 °C 1012.1 hPa NW 14.5 km/h 14.5 km/h 49 % 0.0 mm 0.0 W/m2 CLR
02:11 17.1 °C 6.3 °C 1012.4 hPa WNW 11.1 km/h 11.1 km/h 49 % 0.0 mm 0.0 W/m2 CLR
02:16 17.0 °C 6.5 °C 1012.4 hPa NW 20.4 km/h 20.4 km/h 50 % 0.0 mm 0.0 W/m2 CLR
02:21 17.1 °C 7.2 °C 1012.4 hPa NNW 22.5 km/h 22.5 km/h 52 % 0.0 mm 0.0 W/m2 CLR
02:26 17.2 °C 7.3 °C 1012.4 hPa NW 24.1 km/h 24.1 km/h 52 % 0.0 mm 0.0 W/m2 CLR
02:31 17.2 °C 7.6 °C 1012.4 hPa NW 22.2 km/h 22.2 km/h 53 % 0.0 mm 0.0 W/m2 CLR
02:36 17.1 °C 7.4 °C 1012.4 hPa NW 24.1 km/h 24.1 km/h 53 % 0.0 mm 0.0 W/m2 CLR
02:41 17.1 °C 7.4 °C 1012.4 hPa NW 18.5 km/h 18.5 km/h 53 % 0.0 mm 0.0 W/m2 CLR
02:46 16.9 °C 7.6 °C 1012.4 hPa NNW 18.5 km/h 18.5 km/h 54 % 0.0 mm 0.0 W/m2 CLR
02:51 16.8 °C 7.7 °C 1012.8 hPa NW 18.5 km/h 18.5 km/h 55 % 0.0 mm 0.0 W/m2 CLR
02:56 16.8 °C 7.7 °C 1012.8 hPa Calm     55 % 0.0 mm 0.0 W/m2 CLR
03:01 16.6 °C 7.5 °C 1012.8 hPa Calm     55 % 0.0 mm 0.0 W/m2 CLR
03:06 16.5 °C 7.4 °C 1012.8 hPa Calm     55 % 0.0 mm 0.0 W/m2 CLR
03:11 16.4 °C 7.6 °C 1012.8 hPa Calm     56 % 0.0 mm 0.0 W/m2 CLR
03:16 16.3 °C 7.5 °C 1012.8 hPa Calm     56 % 0.0 mm 0.0 W/m2 CLR
03:21 16.2 °C 7.4 °C 1012.8 hPa Calm     56 % 0.0 mm 0.0 W/m2 CLR
03:26 16.1 °C 7.6 °C 1012.8 hPa Calm     57 % 0.0 mm 0.0 W/m2 CLR
03:31 15.9 °C 7.4 °C 1013.1 hPa Calm     57 % 0.0 mm 0.0 W/m2 CLR
03:36 15.8 °C 7.5 °C 1013.1 hPa Calm     58 % 0.0 mm 0.0 W/m2 CLR
03:41 15.6 °C 7.4 °C 1013.1 hPa Calm     58 % 0.0 mm 0.0 W/m2 CLR
03:46 15.5 °C 7.5 °C 1013.1 hPa Calm     59 % 0.0 mm 0.0 W/m2 CLR
03:51 15.6 °C 7.6 °C 1012.8 hPa West 4.8 km/h 4.8 km/h 59 % 0.0 mm 0.0 W/m2 CLR
03:56 15.5 °C 7.5 °C 1013.1 hPa West 9.7 km/h 9.7 km/h 59 % 0.0 mm 0.0 W/m2 CLR
04:01 15.4 °C 7.4 °C 1012.8 hPa West 7.4 km/h 7.4 km/h 59 % 0.0 mm 0.0 W/m2 CLR
04:06 15.2 °C 7.3 °C 1013.1 hPa WSW 11.1 km/h 11.1 km/h 59 % 0.0 mm 0.0 W/m2 CLR
04:11 15.1 °C 7.4 °C 1012.8 hPa WSW 9.7 km/h 9.7 km/h 60 % 0.0 mm 0.0 W/m2 CLR
04:16 15.0 °C 7.6 °C 1012.8 hPa WSW 13.0 km/h 13.0 km/h 61 % 0.0 mm 0.0 W/m2 CLR
04:22 14.9 °C 7.7 °C 1012.8 hPa West 14.8 km/h 14.8 km/h 62 % 0.0 mm 0.0 W/m2 CLR
04:27 15.0 °C 7.8 °C 1012.8 hPa WSW 11.1 km/h 11.1 km/h 62 % 0.0 mm 0.0 W/m2 CLR
04:32 14.9 °C 7.7 °C 1012.8 hPa West 9.7 km/h 9.7 km/h 62 % 0.0 mm 0.0 W/m2 CLR
04:37 14.8 °C 7.8 °C 1012.8 hPa WSW 5.6 km/h 5.6 km/h 63 % 0.0 mm 0.0 W/m2 CLR
04:42 14.7 °C 7.7 °C 1012.8 hPa West 5.6 km/h 5.6 km/h 63 % 0.0 mm 0.0 W/m2 CLR
04:47 14.6 °C 7.8 °C 1012.8 hPa WSW 9.3 km/h 9.3 km/h 64 % 0.0 mm 0.0 W/m2 CLR
04:52 14.4 °C 7.7 °C 1012.8 hPa West 8.0 km/h 8.0 km/h 64 % 0.0 mm 0.0 W/m2 CLR
04:57 14.4 °C 8.1 °C 1012.8 hPa West 14.8 km/h 14.8 km/h 66 % 0.0 mm 0.0 W/m2 CLR
05:02 14.6 °C 8.1 °C 1012.8 hPa West 14.8 km/h 14.8 km/h 65 % 0.0 mm 0.0 W/m2 CLR
05:07 14.7 °C 8.2 °C 1012.8 hPa West 14.8 km/h 14.8 km/h 65 % 0.0 mm 0.0 W/m2 CLR
05:12 14.7 °C 8.2 °C 1012.8 hPa West 13.0 km/h 13.0 km/h 65 % 0.0 mm 0.0 W/m2 CLR
05:17 14.8 °C 8.1 °C 1012.8 hPa West 14.8 km/h 14.8 km/h 64 % 0.0 mm 0.0 W/m2 CLR
05:22 14.9 °C 7.9 °C 1012.8 hPa West 11.1 km/h 11.1 km/h 63 % 0.0 mm 0.0 W/m2 CLR
05:27 14.9 °C 7.7 °C 1012.8 hPa WNW 5.6 km/h 5.6 km/h 62 % 0.0 mm 0.0 W/m2 CLR
05:32 14.8 °C 7.6 °C 1013.1 hPa Calm     62 % 0.0 mm 0.0 W/m2 CLR
05:33 14.8 °C 7.6 °C 1013.1 hPa Calm     62 % 0.0 mm 0.0 W/m2 CLR
05:38 14.5 °C 7.8 °C 1013.1 hPa Calm     64 % 0.0 mm 0.0 W/m2 CLR
05:43 14.2 °C 7.7 °C 1012.8 hPa Calm     65 % 0.0 mm 0.0 W/m2 CLR
05:48 13.9 °C 7.7 °C 1012.8 hPa Calm     66 % 0.0 mm 0.0 W/m2 CLR
05:53 13.7 °C 7.7 °C 1013.1 hPa West 7.4 km/h 7.4 km/h 67 % 0.0 mm 0.0 W/m2 CLR
05:58 13.7 °C 7.7 °C 1013.1 hPa West 9.3 km/h 9.3 km/h 67 % 0.0 mm 0.0 W/m2 CLR
06:03 13.8 °C 7.6 °C 1013.1 hPa WSW 9.3 km/h 9.3 km/h 66 % 0.0 mm 0.0 W/m2 CLR
06:08 13.8 °C 7.6 °C 1013.1 hPa WSW 7.4 km/h 7.4 km/h 66 % 0.0 mm 0.0 W/m2 CLR
06:13 13.7 °C 7.4 °C 1013.1 hPa SW 3.2 km/h 3.2 km/h 66 % 0.0 mm 0.0 W/m2 CLR
06:18 13.2 °C 7.2 °C 1013.1 hPa WSW 7.4 km/h 7.4 km/h 67 % 0.0 mm 0.0 W/m2 CLR
06:23 12.7 °C 7.2 °C 1013.1 hPa SW 9.7 km/h 9.7 km/h 69 % 0.0 mm 0.0 W/m2 OVC
06:29 12.5 °C 7.2 °C 1013.4 hPa WSW 7.4 km/h 7.4 km/h 70 % 0.0 mm 0.0 W/m2 OVC
06:34 12.6 °C 7.4 °C 1013.4 hPa WSW 7.4 km/h 7.4 km/h 71 % 0.0 mm 5.0 W/m2 OVC
06:39 12.8 °C 7.7 °C 1013.4 hPa West 9.7 km/h 9.7 km/h 71 % 0.0 mm 7.0 W/m2 BKN
06:44 13.3 °C 7.9 °C 1013.4 hPa West 12.9 km/h 12.9 km/h 70 % 0.0 mm 9.0 W/m2 BKN
06:49 13.7 °C 7.9 °C 1013.4 hPa WSW 13.0 km/h 13.0 km/h 68 % 0.0 mm 11.0 W/m2 BKN
06:54 13.6 °C 7.6 °C 1013.8 hPa WSW 11.3 km/h 11.3 km/h 67 % 0.0 mm 12.0 W/m2 BKN
06:59 13.8 °C 7.8 °C 1013.8 hPa West 18.5 km/h 18.5 km/h 67 % 0.0 mm 14.0 W/m2 BKN
07:04 14.0 °C 7.7 °C 1013.8 hPa West 14.5 km/h 14.5 km/h 66 % 0.0 mm 19.0 W/m2 BKN
07:09 14.3 °C 7.8 °C 1013.8 hPa SW 13.0 km/h 13.0 km/h 65 % 0.0 mm 26.0 W/m2 BKN
07:14 14.7 °C 7.4 °C 1013.8 hPa West 14.8 km/h 14.8 km/h 62 % 0.0 mm 39.0 W/m2 BKN
07:19 15.0 °C 7.6 °C 1013.8 hPa WNW 16.7 km/h 16.7 km/h 61 % 0.0 mm 47.0 W/m2 SCT
07:24 15.1 °C 7.7 °C 1013.8 hPa West 18.5 km/h 18.5 km/h 61 % 0.0 mm 62.0 W/m2 SCT
07:29 15.3 °C 7.3 °C 1014.1 hPa WNW 14.8 km/h 14.8 km/h 59 % 0.0 mm 74.0 W/m2 FEW
07:34 15.5 °C 7.3 °C 1014.1 hPa WSW 11.3 km/h 11.3 km/h 58 % 0.0 mm 86.0 W/m2 FEW
07:39 15.7 °C 7.2 °C 1014.1 hPa West 16.7 km/h 16.7 km/h 57 % 0.0 mm 100.0 W/m2 FEW
07:44 15.8 °C 7.1 °C 1014.1 hPa WSW 14.8 km/h 14.8 km/h 56 % 0.0 mm 120.0 W/m2 CLR
07:49 16.0 °C 7.2 °C 1014.1 hPa West 5.6 km/h 5.6 km/h 56 % 0.0 mm 135.0 W/m2 CLR
07:54 16.1 °C 7.1 °C 1014.4 hPa WSW 16.7 km/h 16.7 km/h 55 % 0.0 mm 151.0 W/m2 CLR
07:59 16.2 °C 6.9 °C 1014.4 hPa West 18.5 km/h 18.5 km/h 54 % 0.0 mm 167.0 W/m2 CLR
08:04 16.2 °C 6.9 °C 1014.4 hPa West 16.7 km/h 16.7 km/h 54 % 0.0 mm 185.0 W/m2 CLR
08:09 16.3 °C 6.9 °C 1014.4 hPa West 16.7 km/h 16.7 km/h 54 % 0.0 mm 204.0 W/m2 CLR
08:14 16.3 °C 7.0 °C 1014.4 hPa West 14.8 km/h 14.8 km/h 54 % 0.0 mm 220.0 W/m2 CLR
08:19 16.4 °C 6.8 °C 1014.4 hPa West 13.0 km/h 13.0 km/h 53 % 0.0 mm 234.0 W/m2 CLR
08:24 16.6 °C 7.0 °C 1014.8 hPa West 7.4 km/h 7.4 km/h 53 % 0.0 mm 248.0 W/m2 CLR
08:29 16.7 °C 7.1 °C 1014.8 hPa NW 13.0 km/h 13.0 km/h 53 % 0.0 mm 265.0 W/m2 CLR
08:34 16.8 °C 6.9 °C 1014.8 hPa WNW 18.5 km/h 18.5 km/h 52 % 0.0 mm 281.0 W/m2 CLR
08:39 16.9 °C 6.9 °C 1014.8 hPa West 19.3 km/h 19.3 km/h 52 % 0.0 mm 295.0 W/m2 CLR
08:44 16.9 °C 7.0 °C 1014.8 hPa WNW 18.5 km/h 18.5 km/h 52 % 0.0 mm 311.0 W/m2 CLR
08:49 17.2 °C 6.9 °C 1014.8 hPa NW 18.5 km/h 18.5 km/h 51 % 0.0 mm 327.0 W/m2 CLR
08:54 17.4 °C 6.8 °C 1015.1 hPa NW 20.4 km/h 20.4 km/h 50 % 0.0 mm 341.0 W/m2 CLR
08:59 17.3 °C 6.8 °C 1015.1 hPa NW 19.3 km/h 19.3 km/h 50 % 0.0 mm 359.0 W/m2 CLR
09:04 17.4 °C 6.9 °C 1015.1 hPa WNW 22.2 km/h 22.2 km/h 50 % 0.0 mm 374.0 W/m2 CLR
09:09 17.4 °C 6.9 °C 1015.5 hPa West 14.8 km/h 14.8 km/h 50 % 0.0 mm 387.0 W/m2 CLR
09:14 17.7 °C 7.2 °C 1015.1 hPa NW 27.8 km/h 27.8 km/h 50 % 0.0 mm 404.0 W/m2 CLR
09:19 17.6 °C 7.1 °C 1015.5 hPa WNW 22.2 km/h 22.2 km/h 50 % 0.0 mm 420.0 W/m2 CLR
09:24 17.7 °C 7.2 °C 1015.5 hPa NW 16.7 km/h 16.7 km/h 50 % 0.0 mm 434.0 W/m2 CLR
09:29 17.8 °C 6.9 °C 1015.5 hPa NW 16.7 km/h 16.7 km/h 49 % 0.0 mm 448.0 W/m2 CLR
09:39 18.1 °C 6.6 °C 1015.1 hPa West 25.9 km/h 25.9 km/h 47 % 0.0 mm 483.0 W/m2 CLR
09:44 18.0 °C 6.8 °C 1015.1 hPa WNW 16.7 km/h 16.7 km/h 48 % 0.0 mm 497.0 W/m2 CLR
09:49 18.2 °C 6.9 °C 1015.1 hPa NW 27.8 km/h 27.8 km/h 48 % 0.0 mm 512.0 W/m2 CLR
09:54 18.4 °C 6.9 °C 1015.1 hPa WNW 22.2 km/h 22.2 km/h 47 % 0.0 mm 526.0 W/m2 CLR
09:59 18.4 °C 6.9 °C 1015.1 hPa NW 14.8 km/h 14.8 km/h 47 % 0.0 mm 540.0 W/m2 CLR
10:04 18.6 °C 6.8 °C 1015.1 hPa NNW 18.5 km/h 18.5 km/h 46 % 0.0 mm 557.0 W/m2 CLR
10:09 19.0 °C 6.8 °C 1015.1 hPa NW 18.5 km/h 18.5 km/h 45 % 0.0 mm 573.0 W/m2 CLR
10:14 19.3 °C 6.7 °C 1015.1 hPa WNW 22.2 km/h 22.2 km/h 44 % 0.0 mm 587.0 W/m2 CLR
10:19 19.2 °C 6.6 °C 1015.1 hPa NW 30.6 km/h 30.6 km/h 44 % 0.0 mm 599.0 W/m2 CLR
10:24 18.9 °C 6.4 °C 1015.1 hPa NNW 20.4 km/h 20.4 km/h 44 % 0.0 mm 613.0 W/m2 CLR
10:29 19.1 °C 6.5 °C 1015.1 hPa NNW 19.3 km/h 19.3 km/h 44 % 0.0 mm 629.0 W/m2 CLR
10:34 19.4 °C 6.8 °C 1015.1 hPa NNW 14.8 km/h 14.8 km/h 44 % 0.0 mm 643.0 W/m2 CLR
10:39 19.3 °C 6.1 °C 1015.1 hPa NNW 18.5 km/h 18.5 km/h 42 % 0.0 mm 656.0 W/m2 CLR
10:44 19.4 °C 6.1 °C 1015.1 hPa NW 18.5 km/h 18.5 km/h 42 % 0.0 mm 670.0 W/m2 CLR
10:49 19.5 °C 6.2 °C 1015.1 hPa West 20.4 km/h 20.4 km/h 42 % 0.0 mm 684.0 W/m2 CLR
10:54 19.6 °C 6.0 °C 1015.1 hPa NW 24.1 km/h 24.1 km/h 41 % 0.0 mm 694.0 W/m2 CLR
10:59 19.9 °C 6.2 °C 1015.1 hPa WNW 20.4 km/h 20.4 km/h 41 % 0.0 mm 707.0 W/m2 CLR
11:04 19.9 °C 6.3 °C 1015.1 hPa NNW 22.2 km/h 22.2 km/h 41 % 0.0 mm 721.0 W/m2 CLR
11:05 19.9 °C 6.3 °C 1015.1 hPa NW 22.2 km/h 22.2 km/h 41 % 0.0 mm 722.0 W/m2 CLR
11:10 20.1 °C 6.1 °C 1015.1 hPa NNW 25.9 km/h 25.9 km/h 40 % 0.0 mm 733.0 W/m2 CLR
11:15 20.1 °C 6.1 °C 1015.1 hPa WNW 24.1 km/h 24.1 km/h 40 % 0.0 mm 744.0 W/m2 CLR
11:20 19.7 °C 5.7 °C 1015.1 hPa NW 24.1 km/h 24.1 km/h 40 % 0.0 mm 759.0 W/m2 CLR
11:25 20.1 °C 6.1 °C 1015.1 hPa WNW 13.0 km/h 13.0 km/h 40 % 0.0 mm 770.0 W/m2 CLR
11:27 20.2 °C 6.1 °C 1015.1 hPa NW 27.8 km/h 27.8 km/h 40 % 0.0 mm 773.0 W/m2 CLR
11:32 20.3 °C 6.3 °C 1015.1 hPa NNW 20.9 km/h 20.9 km/h 40 % 0.0 mm 788.0 W/m2 CLR
11:37 20.4 °C 6.3 °C 1015.1 hPa NNW 31.5 km/h 31.5 km/h 40 % 0.0 mm 807.0 W/m2 CLR
11:42 20.4 °C 6.4 °C 1015.1 hPa NW 24.1 km/h 24.1 km/h 40 % 0.0 mm 812.0 W/m2 CLR
11:47 20.4 °C 6.4 °C 1015.1 hPa WNW 18.5 km/h 18.5 km/h 40 % 0.0 mm 842.0 W/m2 CLR
11:52 20.6 °C 6.6 °C 1015.1 hPa NNW 25.9 km/h 25.9 km/h 40 % 0.0 mm 860.0 W/m2 CLR
11:57 20.9 °C 6.4 °C 1015.1 hPa North 20.4 km/h 20.4 km/h 39 % 0.0 mm 893.0 W/m2 CLR
12:02 20.8 °C 6.3 °C 1015.1 hPa NNW 22.2 km/h 22.2 km/h 39 % 0.0 mm 914.0 W/m2 CLR
12:07 20.7 °C 6.3 °C 1015.1 hPa NNW 31.5 km/h 31.5 km/h 39 % 0.0 mm 114.0 W/m2 CLR
12:13 20.4 °C 6.3 °C 1015.1 hPa NW 18.5 km/h 18.5 km/h 40 % 0.0 mm 925.0 W/m2 CLR
12:18 20.5 °C 6.4 °C 1015.1 hPa NNW 17.7 km/h 17.7 km/h 40 % 0.0 mm 267.0 W/m2 CLR
12:23 20.6 °C 6.8 °C 1015.1 hPa NNW 22.2 km/h 22.2 km/h 41 % 0.0 mm 981.0 W/m2 CLR
12:28 21.1 °C 6.6 °C 1015.1 hPa NNW 18.5 km/h 18.5 km/h 39 % 0.0 mm 995.0 W/m2 CLR
12:32 21.4 °C 6.5 °C 1015.1 hPa West 25.9 km/h 25.9 km/h 38 % 0.0 mm 1016.0 W/m2 CLR
12:37 21.1 °C 7.3 °C 1015.1 hPa NNW 18.5 km/h 18.5 km/h 41 % 0.0 mm 1065.0 W/m2 CLR
12:42 21.2 °C 7.0 °C 1015.1 hPa WNW 22.5 km/h 22.5 km/h 40 % 0.0 mm 287.0 W/m2 CLR
12:47 21.3 °C 7.1 °C 1015.1 hPa North 24.1 km/h 24.1 km/h 40 % 0.0 mm 969.0 W/m2 CLR
12:53 21.7 °C 7.5 °C 1015.1 hPa NW 24.1 km/h 24.8 km/h 40 % 0.0 mm 1004.0 W/m2 CLR
12:58 20.9 °C 6.4 °C 1015.1 hPa NW 22.2 km/h 22.2 km/h 39 % 0.0 mm 221.0 W/m2 CLR
13:03 20.7 °C 6.3 °C 1015.1 hPa NW 27.8 km/h 27.8 km/h 39 % 0.0 mm 1058.0 W/m2 CLR
13:08 21.1 °C 6.6 °C 1015.1 hPa NNW 29.6 km/h 29.6 km/h 39 % 0.0 mm 274.0 W/m2 CLR
13:13 21.2 °C 6.7 °C 1015.1 hPa NNW 24.1 km/h 24.1 km/h 39 % 0.0 mm 1072.0 W/m2 CLR
13:18 21.3 °C 6.8 °C 1015.1 hPa NNW 25.9 km/h 25.9 km/h 39 % 0.0 mm 199.0 W/m2 CLR
13:23 21.4 °C 7.3 °C 1015.1 hPa WNW 27.8 km/h 27.8 km/h 40 % 0.0 mm 990.0 W/m2 CLR
13:28 21.6 °C 7.1 °C 1015.1 hPa NNW 33.3 km/h 33.3 km/h 39 % 0.0 mm 1090.0 W/m2 CLR
13:33 21.7 °C 7.2 °C 1015.1 hPa NNW 20.9 km/h 20.9 km/h 39 % 0.0 mm 1132.0 W/m2 CLR
13:38 21.6 °C 6.7 °C 1015.1 hPa NW 37.0 km/h 37.0 km/h 38 % 0.0 mm 1102.0 W/m2 CLR
13:43 21.8 °C 6.9 °C 1015.1 hPa WNW 24.1 km/h 24.1 km/h 38 % 0.0 mm 998.0 W/m2 CLR
13:48 22.0 °C 6.6 °C 1015.1 hPa WNW 24.1 km/h 24.1 km/h 37 % 0.0 mm 207.0 W/m2 CLR
13:53 21.7 °C 6.7 °C 1015.1 hPa NW 18.5 km/h 18.5 km/h 38 % 0.0 mm 316.0 W/m2 CLR
13:58 21.7 °C 6.8 °C 1015.1 hPa NW 14.8 km/h 14.8 km/h 38 % 0.0 mm 1095.0 W/m2 CLR
14:03 22.2 °C 7.2 °C 1015.1 hPa NW 24.1 km/h 24.1 km/h 38 % 0.0 mm 1121.0 W/m2 CLR
14:08 22.4 °C 7.0 °C 1015.1 hPa North 27.8 km/h 27.8 km/h 37 % 0.0 mm 1137.0 W/m2 CLR
14:13 22.4 °C 7.0 °C 1015.1 hPa NNW 29.6 km/h 29.6 km/h 37 % 0.0 mm 279.0 W/m2 CLR
14:18 21.9 °C 6.9 °C 1015.1 hPa North 24.1 km/h 24.1 km/h 38 % 0.0 mm 267.0 W/m2 CLR
14:23 21.9 °C 6.9 °C 1015.1 hPa NNW 22.5 km/h 22.5 km/h 38 % 0.0 mm 1049.0 W/m2 CLR
14:28 22.4 °C 7.4 °C 1015.1 hPa North 25.9 km/h 25.9 km/h 38 % 0.0 mm 1157.0 W/m2 CLR
14:33 22.2 °C 7.2 °C 1015.1 hPa NNW 27.8 km/h 27.8 km/h 38 % 0.0 mm 325.0 W/m2 CLR
14:38 22.5 °C 7.1 °C 1015.1 hPa NW 24.1 km/h 24.1 km/h 37 % 0.0 mm 1085.0 W/m2 CLR
14:43 22.8 °C 6.9 °C 1015.1 hPa NW 24.1 km/h 24.1 km/h 36 % 0.0 mm 1027.0 W/m2 CLR
14:48 23.1 °C 7.2 °C 1015.1 hPa WNW 33.3 km/h 33.3 km/h 36 % 0.0 mm 1123.0 W/m2 CLR
14:53 23.2 °C 7.3 °C 1015.1 hPa NNW 29.6 km/h 29.6 km/h 36 % 0.0 mm 970.0 W/m2 CLR
14:58 23.2 °C 7.3 °C 1015.1 hPa NNW 33.3 km/h 33.3 km/h 36 % 0.0 mm 1114.0 W/m2 CLR
15:03 22.8 °C 6.9 °C 1015.1 hPa WNW 32.2 km/h 32.2 km/h 36 % 0.0 mm 1056.0 W/m2 CLR
15:13 22.8 °C 7.3 °C 1015.1 hPa WNW 22.2 km/h 22.2 km/h 37 % 0.0 mm 1063.0 W/m2 CLR
15:18 23.0 °C 7.5 °C 1015.1 hPa NNW 22.2 km/h 22.2 km/h 37 % 0.0 mm 984.0 W/m2 CLR
15:23 22.7 °C 7.6 °C 1015.1 hPa NNW 35.4 km/h 35.4 km/h 38 % 0.0 mm 1044.0 W/m2 CLR
15:28 22.6 °C 7.2 °C 1015.1 hPa NNW 42.6 km/h 42.6 km/h 37 % 0.0 mm 311.0 W/m2 CLR
15:33 22.3 °C 7.3 °C 1015.1 hPa WNW 24.1 km/h 24.1 km/h 38 % 0.0 mm 1120.0 W/m2 CLR
15:38 22.7 °C 7.3 °C 1015.1 hPa WNW 31.5 km/h 31.5 km/h 37 % 0.0 mm 1063.0 W/m2 CLR
15:43 22.3 °C 7.7 °C 1015.1 hPa North 25.9 km/h 25.9 km/h 39 % 0.0 mm 1027.0 W/m2 CLR
15:48 22.8 °C 7.7 °C 1014.8 hPa NNW 25.9 km/h 25.9 km/h 38 % 0.0 mm 949.0 W/m2 CLR
15:53 23.3 °C 7.8 °C 1014.8 hPa NW 24.1 km/h 24.1 km/h 37 % 0.0 mm 937.0 W/m2 CLR
15:58 22.9 °C 7.4 °C 1014.8 hPa NNW 20.4 km/h 20.4 km/h 37 % 0.0 mm 940.0 W/m2 CLR
16:03 23.3 °C 7.8 °C 1015.1 hPa NNW 42.6 km/h 42.6 km/h 37 % 0.0 mm 882.0 W/m2 CLR
16:08 23.2 °C 7.3 °C 1014.8 hPa North 35.4 km/h 35.4 km/h 36 % 0.0 mm 909.0 W/m2 CLR
16:13 22.4 °C 7.4 °C 1014.8 hPa North 29.6 km/h 29.6 km/h 38 % 0.0 mm 214.0 W/m2 CLR
16:18 22.4 °C 7.4 °C 1014.8 hPa WNW 25.9 km/h 25.9 km/h 38 % 0.0 mm 287.0 W/m2 CLR
16:23 22.4 °C 7.8 °C 1015.1 hPa NNW 40.7 km/h 40.7 km/h 39 % 0.0 mm 311.0 W/m2 CLR
16:28 22.9 °C 7.8 °C 1014.8 hPa NW 27.8 km/h 27.8 km/h 38 % 0.0 mm 823.0 W/m2 CLR
16:33 23.1 °C 8.0 °C 1014.8 hPa NNW 31.5 km/h 31.5 km/h 38 % 0.0 mm 858.0 W/m2 CLR
16:38 22.9 °C 7.8 °C 1014.8 hPa NNW 25.9 km/h 25.9 km/h 38 % 0.0 mm 896.0 W/m2 CLR
16:43 23.1 °C 8.4 °C 1014.8 hPa NW 31.5 km/h 31.5 km/h 39 % 0.0 mm 900.0 W/m2 CLR
16:48 22.8 °C 7.8 °C 1015.1 hPa NW 25.7 km/h 25.7 km/h 38 % 0.0 mm 186.0 W/m2 CLR
16:53 23.1 °C 8.0 °C 1014.8 hPa NNW 27.8 km/h 27.8 km/h 38 % 0.0 mm 868.0 W/m2 CLR
16:58 23.2 °C 8.1 °C 1014.8 hPa NW 24.1 km/h 24.1 km/h 38 % 0.0 mm 248.0 W/m2 CLR
17:03 23.0 °C 7.9 °C 1014.8 hPa North 24.1 km/h 24.1 km/h 38 % 0.0 mm 171.0 W/m2 CLR
17:08 22.9 °C 7.9 °C 1014.8 hPa NW 33.3 km/h 33.3 km/h 38 % 0.0 mm 831.0 W/m2 CLR
17:13 23.4 °C 7.9 °C 1014.8 hPa NW 38.9 km/h 38.9 km/h 37 % 0.0 mm 758.0 W/m2 CLR
17:18 23.3 °C 7.4 °C 1014.8 hPa NW 31.5 km/h 31.5 km/h 36 % 0.0 mm 726.0 W/m2 CLR
17:23 23.4 °C 7.5 °C 1014.8 hPa WNW 33.3 km/h 33.3 km/h 36 % 0.0 mm 687.0 W/m2 CLR
17:28 22.9 °C 7.0 °C 1014.8 hPa NNW 38.9 km/h 38.9 km/h 36 % 0.0 mm 118.0 W/m2 CLR
17:33 23.1 °C 7.6 °C 1014.8 hPa NW 27.8 km/h 27.8 km/h 37 % 0.0 mm 691.0 W/m2 CLR
17:38 23.1 °C 7.2 °C 1014.8 hPa North 24.1 km/h 24.1 km/h 36 % 0.0 mm 109.0 W/m2 CLR
17:43 23.1 °C 7.2 °C 1014.8 hPa NW 33.3 km/h 33.3 km/h 36 % 0.0 mm 635.0 W/m2 CLR
17:48 23.4 °C 7.5 °C 1014.8 hPa NNE 30.6 km/h 30.6 km/h 36 % 0.0 mm 624.0 W/m2 CLR
17:53 23.7 °C 7.8 °C 1014.8 hPa North 44.4 km/h 44.4 km/h 36 % 0.0 mm 664.0 W/m2 CLR
17:58 23.3 °C 7.8 °C 1014.8 hPa NNW 35.2 km/h 35.2 km/h 37 % 0.0 mm 113.0 W/m2 CLR
18:03 22.9 °C 7.4 °C 1014.8 hPa NNW 33.8 km/h 33.8 km/h 37 % 0.0 mm 167.0 W/m2 CLR
18:08 23.1 °C 7.2 °C 1014.8 hPa North 33.3 km/h 33.3 km/h 36 % 0.0 mm 571.0 W/m2 CLR
18:13 23.2 °C 7.7 °C 1014.8 hPa NNW 27.4 km/h 27.4 km/h 37 % 0.0 mm 540.0 W/m2 CLR
18:18 23.2 °C 7.7 °C 1014.8 hPa NNW 37.0 km/h 37.0 km/h 37 % 0.0 mm 529.0 W/m2 CLR
18:23 23.4 °C 7.9 °C 1014.8 hPa NNW 30.6 km/h 30.6 km/h 37 % 0.0 mm 534.0 W/m2 CLR
18:28 23.6 °C 8.0 °C 1014.8 hPa North 29.6 km/h 29.6 km/h 37 % 0.0 mm 559.0 W/m2 CLR
18:32 23.5 °C 7.9 °C 1014.8 hPa NW 40.7 km/h 40.7 km/h 37 % 0.0 mm 568.0 W/m2 CLR
18:37 23.1 °C 8.0 °C 1014.8 hPa NNW 27.4 km/h 27.4 km/h 38 % 0.0 mm 128.0 W/m2 CLR
18:42 23.6 °C 8.4 °C 1014.8 hPa NNW 31.5 km/h 31.5 km/h 38 % 0.0 mm 487.0 W/m2 CLR
18:47 23.4 °C 7.9 °C 1014.8 hPa NW 37.0 km/h 37.0 km/h 37 % 0.0 mm 489.0 W/m2 CLR
18:52 23.6 °C 8.0 °C 1014.8 hPa NW 37.0 km/h 37.0 km/h 37 % 0.0 mm 482.0 W/m2 CLR
18:57 23.4 °C 8.3 °C 1014.8 hPa NNW 29.6 km/h 29.6 km/h 38 % 0.0 mm 434.0 W/m2 CLR
19:02 23.3 °C 8.2 °C 1014.8 hPa NNW 27.8 km/h 27.8 km/h 38 % 0.0 mm 404.0 W/m2 CLR
19:07 23.4 °C 8.3 °C 1015.1 hPa NW 25.9 km/h 25.9 km/h 38 % 0.0 mm 401.0 W/m2 CLR
19:12 23.6 °C 8.4 °C 1015.1 hPa NNW 33.3 km/h 33.3 km/h 38 % 0.0 mm 387.0 W/m2 CLR
19:17 23.3 °C 8.6 °C 1015.1 hPa NNW 33.8 km/h 33.8 km/h 39 % 0.0 mm 357.0 W/m2 CLR
19:22 23.1 °C 8.3 °C 1015.1 hPa NW 35.2 km/h 35.2 km/h 39 % 0.0 mm 345.0 W/m2 CLR
19:27 22.8 °C 8.4 °C 1015.5 hPa North 40.7 km/h 40.7 km/h 40 % 0.0 mm 318.0 W/m2 CLR
19:32 22.6 °C 8.3 °C 1015.5 hPa North 31.5 km/h 31.5 km/h 40 % 0.0 mm 297.0 W/m2 CLR
19:37 22.5 °C 8.2 °C 1015.8 hPa NNW 33.3 km/h 33.3 km/h 40 % 0.0 mm 283.0 W/m2 CLR
19:42 22.6 °C 8.6 °C 1015.5 hPa NNW 27.4 km/h 27.4 km/h 41 % 0.0 mm 260.0 W/m2 CLR
19:45 22.5 °C 8.6 °C 1015.5 hPa North 37.0 km/h 37.0 km/h 41 % 0.0 mm 251.0 W/m2 CLR
19:50 22.4 °C 8.5 °C 1015.8 hPa North 24.1 km/h 24.1 km/h 41 % 0.0 mm 225.0 W/m2 CLR
19:55 22.4 °C 8.9 °C 1015.8 hPa North 16.7 km/h 16.7 km/h 42 % 0.0 mm 209.0 W/m2 CLR
20:00 22.3 °C 9.1 °C 1015.8 hPa NNW 33.3 km/h 33.3 km/h 43 % 0.0 mm 197.0 W/m2 CLR
20:05 22.1 °C 8.6 °C 1015.8 hPa NNW 27.8 km/h 27.8 km/h 42 % 0.0 mm 39.0 W/m2 CLR
20:10 21.8 °C 8.3 °C 1015.8 hPa NNW 37.0 km/h 37.0 km/h 42 % 0.0 mm 165.0 W/m2 FEW
20:11 21.7 °C 8.6 °C 1015.8 hPa NNW 35.2 km/h 35.2 km/h 43 % 0.0 mm 165.0 W/m2 FEW
20:16 21.6 °C 8.4 °C 1015.8 hPa NNW 33.3 km/h 33.3 km/h 43 % 0.0 mm 33.0 W/m2 SCT
20:21 21.3 °C 8.5 °C 1016.1 hPa North 25.9 km/h 25.9 km/h 44 % 0.0 mm 35.0 W/m2 SCT
20:26 21.2 °C 8.8 °C 1016.1 hPa NNW 20.4 km/h 20.4 km/h 45 % 0.0 mm 88.0 W/m2 SCT
20:31 21.3 °C 8.8 °C 1016.1 hPa NW 33.8 km/h 33.8 km/h 45 % 0.0 mm 88.0 W/m2 FEW
20:36 21.3 °C 8.2 °C 1016.1 hPa NNW 42.6 km/h 42.6 km/h 43 % 0.0 mm 91.0 W/m2 CLR
20:41 21.2 °C 8.4 °C 1016.1 hPa North 25.9 km/h 25.9 km/h 44 % 0.0 mm 69.0 W/m2 FEW
20:46 21.2 °C 8.8 °C 1016.1 hPa North 25.7 km/h 25.7 km/h 45 % 0.0 mm 47.0 W/m2 SCT
20:51 21.0 °C 8.9 °C 1016.5 hPa NNW 24.1 km/h 24.1 km/h 46 % 0.0 mm 23.0 W/m2 BKN
20:56 20.7 °C 8.6 °C 1016.5 hPa NW 25.9 km/h 25.9 km/h 46 % 0.0 mm 16.0 W/m2 BKN
21:01 20.4 °C 9.0 °C 1016.5 hPa NNW 25.9 km/h 25.9 km/h 48 % 0.0 mm 12.0 W/m2 BKN
21:06 20.3 °C 9.2 °C 1016.8 hPa NNW 18.5 km/h 18.5 km/h 49 % 0.0 mm 9.0 W/m2 BKN
21:11 20.1 °C 9.3 °C 1016.8 hPa North 27.8 km/h 27.8 km/h 50 % 0.0 mm 7.0 W/m2 BKN
21:16 19.9 °C 9.7 °C 1016.8 hPa North 22.2 km/h 22.2 km/h 52 % 0.0 mm 7.0 W/m2 BKN
21:21 19.8 °C 9.3 °C 1017.2 hPa North 20.4 km/h 20.4 km/h 51 % 0.0 mm 5.0 W/m2 OVC
21:26 19.6 °C 8.8 °C 1017.2 hPa NNW 27.8 km/h 27.8 km/h 50 % 0.0 mm 0.0 W/m2 OVC
21:31 19.3 °C 8.3 °C 1017.2 hPa North 27.8 km/h 27.8 km/h 49 % 0.0 mm 0.0 W/m2 OVC
21:36 19.1 °C 8.7 °C 1017.5 hPa NNW 29.6 km/h 29.6 km/h 51 % 0.0 mm 0.0 W/m2 OVC
21:41 18.9 °C 8.6 °C 1017.5 hPa NW 24.1 km/h 24.1 km/h 51 % 0.0 mm 0.0 W/m2 OVC
21:46 18.9 °C 8.8 °C 1017.5 hPa North 19.3 km/h 19.3 km/h 52 % 0.0 mm 0.0 W/m2 CLR
21:51 18.8 °C 9.0 °C 1017.5 hPa NNW 18.5 km/h 18.5 km/h 53 % 0.0 mm 0.0 W/m2 CLR
21:56 18.7 °C 8.9 °C 1017.8 hPa NW 24.1 km/h 24.1 km/h 53 % 0.0 mm 0.0 W/m2 CLR
22:01 18.6 °C 8.8 °C 1017.8 hPa NW 29.6 km/h 29.6 km/h 53 % 0.0 mm 0.0 W/m2 CLR
22:06 18.5 °C 8.7 °C 1018.2 hPa WNW 29.0 km/h 29.0 km/h 53 % 0.0 mm 0.0 W/m2 CLR
22:11 18.3 °C 8.6 °C 1018.2 hPa NNW 32.2 km/h 32.2 km/h 53 % 0.0 mm 0.0 W/m2 CLR
22:16 18.2 °C 8.8 °C 1018.2 hPa NW 25.9 km/h 25.9 km/h 54 % 0.0 mm 0.0 W/m2 CLR
22:21 18.1 °C 8.7 °C 1018.5 hPa NNW 35.2 km/h 35.2 km/h 54 % 0.0 mm 0.0 W/m2 CLR
22:26 18.0 °C 8.6 °C 1018.5 hPa NNW 25.9 km/h 25.9 km/h 54 % 0.0 mm 0.0 W/m2 CLR
22:31 17.9 °C 8.5 °C 1018.5 hPa NW 25.7 km/h 25.7 km/h 54 % 0.0 mm 0.0 W/m2 CLR
22:36 17.8 °C 8.7 °C 1018.8 hPa NNW 27.8 km/h 27.8 km/h 55 % 0.0 mm 0.0 W/m2 CLR
22:41 17.8 °C 8.6 °C 1018.8 hPa NW 25.9 km/h 25.9 km/h 55 % 0.0 mm 0.0 W/m2 CLR
22:46 17.7 °C 8.8 °C 1018.8 hPa North 18.5 km/h 18.5 km/h 56 % 0.0 mm 0.0 W/m2 CLR
22:51 17.6 °C 8.7 °C 1018.8 hPa WNW 18.5 km/h 18.5 km/h 56 % 0.0 mm 0.0 W/m2 CLR
22:52 17.6 °C 8.7 °C 1018.8 hPa NW 18.5 km/h 18.5 km/h 56 % 0.0 mm 0.0 W/m2 CLR
22:57 17.5 °C 8.9 °C 1019.2 hPa NNW 18.5 km/h 18.5 km/h 57 % 0.0 mm 0.0 W/m2 CLR
23:02 17.5 °C 8.9 °C 1019.2 hPa NW 18.5 km/h 18.5 km/h 57 % 0.0 mm 0.0 W/m2 CLR
23:04 17.5 °C 8.6 °C 1019.2 hPa NW 24.1 km/h 24.1 km/h 56 % 0.0 mm 0.0 W/m2 CLR
23:07 17.4 °C 8.6 °C 1019.2 hPa NNW 18.5 km/h 18.5 km/h 56 % 0.0 mm 0.0 W/m2 CLR
23:12 17.4 °C 8.3 °C 1019.5 hPa WNW 22.2 km/h 22.2 km/h 55 % 0.0 mm 0.0 W/m2 CLR
23:17 17.3 °C 8.4 °C 1019.5 hPa NNW 18.5 km/h 18.5 km/h 56 % 0.0 mm 0.0 W/m2 CLR
23:22 17.3 °C 8.2 °C 1019.5 hPa NW 22.5 km/h 22.5 km/h 55 % 0.0 mm 0.0 W/m2 CLR
23:27 17.2 °C 8.3 °C 1019.5 hPa NW 24.1 km/h 24.1 km/h 56 % 0.0 mm 0.0 W/m2 CLR
23:32 17.1 °C 8.3 °C 1019.5 hPa NW 19.3 km/h 19.3 km/h 56 % 0.0 mm 0.0 W/m2 CLR
23:37 17.0 °C 8.2 °C 1019.5 hPa NW 18.5 km/h 18.5 km/h 56 % 0.0 mm 0.0 W/m2 CLR
23:42 16.9 °C 8.4 °C 1019.5 hPa NW 16.7 km/h 16.7 km/h 57 % 0.0 mm 0.0 W/m2 CLR
23:47 16.9 °C 8.3 °C 1019.5 hPa West 11.1 km/h 11.1 km/h 57 % 0.0 mm 0.0 W/m2 CLR
23:52 16.8 °C 8.4 °C 1019.5 hPa WNW 11.3 km/h 11.3 km/h 58 % 0.0 mm 0.0 W/m2 CLR
23:57 16.7 °C 8.7 °C 1019.5 hPa WNW 16.7 km/h 16.7 km/h 59 % 0.0 mm 0.0 W/m2 CLR
Lo Temps de Massalio
Compliments of Weather Underground - 1.25 mb